sensor_id;sensor_type;location;lat;lon;timestamp;P1;durP1;ratioP1;P2;durP2;ratioP2
12878;SDS011;20617;49.476;10.986;2022-09-09T00:00:35;3.63;;;1.55;;
12878;SDS011;20617;49.476;10.986;2022-09-09T00:02:41;1.50;;;1.30;;
12878;SDS011;20617;49.476;10.986;2022-09-09T00:04:54;2.17;;;1.65;;
12878;SDS011;20617;49.476;10.986;2022-09-09T00:07:18;3.33;;;1.35;;
12878;SDS011;20617;49.476;10.986;2022-09-09T00:09:29;3.30;;;1.48;;
12878;SDS011;20617;49.476;10.986;2022-09-09T00:11:40;3.53;;;1.80;;
12878;SDS011;20617;49.476;10.986;2022-09-09T00:13:48;2.40;;;1.40;;
12878;SDS011;20617;49.476;10.986;2022-09-09T00:15:59;1.98;;;1.40;;
12878;SDS011;20617;49.476;10.986;2022-09-09T00:18:11;2.80;;;1.63;;
12878;SDS011;20617;49.476;10.986;2022-09-09T00:20:29;2.97;;;1.40;;
12878;SDS011;20617;49.476;10.986;2022-09-09T00:22:41;2.50;;;1.70;;
12878;SDS011;20617;49.476;10.986;2022-09-09T00:24:52;3.05;;;1.60;;
12878;SDS011;20617;49.476;10.986;2022-09-09T00:27:00;1.77;;;1.50;;
12878;SDS011;20617;49.476;10.986;2022-09-09T00:29:10;4.07;;;1.50;;
12878;SDS011;20617;49.476;10.986;2022-09-09T00:31:25;2.95;;;1.65;;
12878;SDS011;20617;49.476;10.986;2022-09-09T00:33:33;2.70;;;1.80;;
12878;SDS011;20617;49.476;10.986;2022-09-09T00:35:42;1.83;;;1.42;;
12878;SDS011;20617;49.476;10.986;2022-09-09T00:37:50;2.58;;;1.38;;
12878;SDS011;20617;49.476;10.986;2022-09-09T00:39:59;3.05;;;1.42;;
12878;SDS011;20617;49.476;10.986;2022-09-09T00:42:12;3.45;;;1.42;;
12878;SDS011;20617;49.476;10.986;2022-09-09T00:44:21;2.67;;;1.90;;
12878;SDS011;20617;49.476;10.986;2022-09-09T00:46:41;2.60;;;1.35;;
12878;SDS011;20617;49.476;10.986;2022-09-09T00:48:59;5.85;;;2.10;;
12878;SDS011;20617;49.476;10.986;2022-09-09T00:51:17;3.05;;;1.40;;
12878;SDS011;20617;49.476;10.986;2022-09-09T00:53:32;3.92;;;1.38;;
12878;SDS011;20617;49.476;10.986;2022-09-09T00:55:45;2.45;;;1.52;;
12878;SDS011;20617;49.476;10.986;2022-09-09T00:57:53;6.13;;;1.77;;
12878;SDS011;20617;49.476;10.986;2022-09-09T01:00:00;3.03;;;1.60;;
12878;SDS011;20617;49.476;10.986;2022-09-09T01:02:26;2.53;;;1.63;;
12878;SDS011;20617;49.476;10.986;2022-09-09T01:04:33;2.70;;;1.50;;
12878;SDS011;20617;49.476;10.986;2022-09-09T01:06:43;3.70;;;1.83;;
12878;SDS011;20617;49.476;10.986;2022-09-09T01:11:31;2.13;;;1.40;;
12878;SDS011;20617;49.476;10.986;2022-09-09T01:13:41;2.83;;;1.38;;
12878;SDS011;20617;49.476;10.986;2022-09-09T01:15:49;1.70;;;1.30;;
12878;SDS011;20617;49.476;10.986;2022-09-09T01:18:02;2.78;;;1.48;;
12878;SDS011;20617;49.476;10.986;2022-09-09T01:20:15;4.35;;;1.48;;
12878;SDS011;20617;49.476;10.986;2022-09-09T01:22:33;2.42;;;1.35;;
12878;SDS011;20617;49.476;10.986;2022-09-09T01:24:42;2.85;;;1.50;;
12878;SDS011;20617;49.476;10.986;2022-09-09T01:27:21;3.33;;;1.40;;
12878;SDS011;20617;49.476;10.986;2022-09-09T01:29:27;2.28;;;1.42;;
12878;SDS011;20617;49.476;10.986;2022-09-09T01:31:35;2.92;;;1.50;;
12878;SDS011;20617;49.476;10.986;2022-09-09T01:33:43;2.58;;;1.30;;
12878;SDS011;20617;49.476;10.986;2022-09-09T01:35:48;3.10;;;1.50;;
12878;SDS011;20617;49.476;10.986;2022-09-09T01:38:02;3.30;;;1.48;;
12878;SDS011;20617;49.476;10.986;2022-09-09T01:40:08;1.83;;;1.40;;
12878;SDS011;20617;49.476;10.986;2022-09-09T01:42:14;1.23;;;1.13;;
12878;SDS011;20617;49.476;10.986;2022-09-09T01:44:23;2.15;;;1.55;;
12878;SDS011;20617;49.476;10.986;2022-09-09T01:46:30;3.10;;;1.30;;
12878;SDS011;20617;49.476;10.986;2022-09-09T01:48:35;1.92;;;1.33;;
12878;SDS011;20617;49.476;10.986;2022-09-09T01:50:42;2.92;;;1.10;;
12878;SDS011;20617;49.476;10.986;2022-09-09T01:52:48;3.85;;;1.40;;
12878;SDS011;20617;49.476;10.986;2022-09-09T01:54:59;2.13;;;1.17;;
12878;SDS011;20617;49.476;10.986;2022-09-09T01:57:11;2.45;;;1.40;;
12878;SDS011;20617;49.476;10.986;2022-09-09T01:59:28;1.85;;;1.30;;
12878;SDS011;20617;49.476;10.986;2022-09-09T02:01:49;3.40;;;1.30;;
12878;SDS011;20617;49.476;10.986;2022-09-09T02:04:08;4.72;;;1.20;;
12878;SDS011;20617;49.476;10.986;2022-09-09T02:06:25;1.92;;;1.00;;
12878;SDS011;20617;49.476;10.986;2022-09-09T02:08:45;1.90;;;1.20;;
12878;SDS011;20617;49.476;10.986;2022-09-09T02:10:54;1.88;;;1.40;;
12878;SDS011;20617;49.476;10.986;2022-09-09T02:13:11;4.40;;;1.60;;
12878;SDS011;20617;49.476;10.986;2022-09-09T02:15:22;2.45;;;1.35;;
12878;SDS011;20617;49.476;10.986;2022-09-09T02:17:33;2.25;;;1.38;;
12878;SDS011;20617;49.476;10.986;2022-09-09T02:19:46;3.78;;;1.48;;
12878;SDS011;20617;49.476;10.986;2022-09-09T02:22:10;1.75;;;1.30;;
12878;SDS011;20617;49.476;10.986;2022-09-09T02:24:15;1.98;;;1.17;;
12878;SDS011;20617;49.476;10.986;2022-09-09T02:26:28;3.28;;;1.20;;
12878;SDS011;20617;49.476;10.986;2022-09-09T02:28:38;2.40;;;1.20;;
12878;SDS011;20617;49.476;10.986;2022-09-09T02:30:48;1.55;;;1.02;;
12878;SDS011;20617;49.476;10.986;2022-09-09T02:33:03;1.83;;;1.23;;
12878;SDS011;20617;49.476;10.986;2022-09-09T02:35:19;4.30;;;1.48;;
12878;SDS011;20617;49.476;10.986;2022-09-09T02:37:30;4.53;;;1.55;;
12878;SDS011;20617;49.476;10.986;2022-09-09T02:39:39;3.05;;;1.00;;
12878;SDS011;20617;49.476;10.986;2022-09-09T02:41:47;1.80;;;1.20;;
12878;SDS011;20617;49.476;10.986;2022-09-09T02:48:14;5.22;;;1.55;;
12878;SDS011;20617;49.476;10.986;2022-09-09T02:50:29;3.83;;;1.30;;
12878;SDS011;20617;49.476;10.986;2022-09-09T02:52:43;3.30;;;1.40;;
12878;SDS011;20617;49.476;10.986;2022-09-09T02:54:57;3.25;;;1.35;;
12878;SDS011;20617;49.476;10.986;2022-09-09T02:57:10;2.03;;;1.63;;
12878;SDS011;20617;49.476;10.986;2022-09-09T02:59:20;2.22;;;1.45;;
12878;SDS011;20617;49.476;10.986;2022-09-09T03:01:30;2.40;;;1.20;;
12878;SDS011;20617;49.476;10.986;2022-09-09T03:03:37;4.22;;;1.45;;
12878;SDS011;20617;49.476;10.986;2022-09-09T03:05:47;2.10;;;1.20;;
12878;SDS011;20617;49.476;10.986;2022-09-09T03:07:52;1.30;;;1.05;;
12878;SDS011;20617;49.476;10.986;2022-09-09T03:09:57;2.08;;;1.38;;
12878;SDS011;20617;49.476;10.986;2022-09-09T03:12:02;3.30;;;1.33;;
12878;SDS011;20617;49.476;10.986;2022-09-09T03:14:09;3.08;;;1.45;;
12878;SDS011;20617;49.476;10.986;2022-09-09T03:16:14;1.58;;;1.27;;
12878;SDS011;20617;49.476;10.986;2022-09-09T03:18:25;3.60;;;1.23;;
12878;SDS011;20617;49.476;10.986;2022-09-09T03:20:31;3.05;;;1.50;;
12878;SDS011;20617;49.476;10.986;2022-09-09T03:22:39;1.63;;;1.23;;
12878;SDS011;20617;49.476;10.986;2022-09-09T03:24:46;2.83;;;1.48;;
12878;SDS011;20617;49.476;10.986;2022-09-09T03:28:57;4.75;;;1.55;;
12878;SDS011;20617;49.476;10.986;2022-09-09T03:31:04;4.30;;;1.70;;
12878;SDS011;20617;49.476;10.986;2022-09-09T03:33:14;4.45;;;1.52;;
12878;SDS011;20617;49.476;10.986;2022-09-09T03:35:23;3.10;;;1.55;;
12878;SDS011;20617;49.476;10.986;2022-09-09T03:37:28;5.00;;;1.40;;
12878;SDS011;20617;49.476;10.986;2022-09-09T03:41:38;2.17;;;1.40;;
12878;SDS011;20617;49.476;10.986;2022-09-09T03:43:43;3.92;;;1.88;;
12878;SDS011;20617;49.476;10.986;2022-09-09T03:45:48;4.35;;;1.23;;
12878;SDS011;20617;49.476;10.986;2022-09-09T03:47:54;2.15;;;1.40;;
12878;SDS011;20617;49.476;10.986;2022-09-09T03:49:59;1.90;;;1.50;;
12878;SDS011;20617;49.476;10.986;2022-09-09T03:52:08;2.42;;;1.58;;
12878;SDS011;20617;49.476;10.986;2022-09-09T03:54:14;4.40;;;1.50;;
12878;SDS011;20617;49.476;10.986;2022-09-09T03:56:19;3.85;;;1.40;;
12878;SDS011;20617;49.476;10.986;2022-09-09T03:58:24;3.30;;;1.48;;
12878;SDS011;20617;49.476;10.986;2022-09-09T04:00:40;2.67;;;1.17;;
12878;SDS011;20617;49.476;10.986;2022-09-09T04:02:46;3.60;;;1.20;;
12878;SDS011;20617;49.476;10.986;2022-09-09T04:06:56;2.78;;;1.60;;
12878;SDS011;20617;49.476;10.986;2022-09-09T04:09:04;2.95;;;1.42;;
12878;SDS011;20617;49.476;10.986;2022-09-09T04:11:09;2.20;;;1.35;;
12878;SDS011;20617;49.476;10.986;2022-09-09T04:13:15;2.13;;;1.55;;
12878;SDS011;20617;49.476;10.986;2022-09-09T04:15:21;2.60;;;1.42;;
12878;SDS011;20617;49.476;10.986;2022-09-09T04:19:31;2.30;;;1.63;;
12878;SDS011;20617;49.476;10.986;2022-09-09T04:21:37;4.82;;;1.40;;
12878;SDS011;20617;49.476;10.986;2022-09-09T04:23:41;3.35;;;1.40;;
12878;SDS011;20617;49.476;10.986;2022-09-09T04:25:49;2.33;;;1.30;;
12878;SDS011;20617;49.476;10.986;2022-09-09T04:27:55;2.65;;;1.30;;
12878;SDS011;20617;49.476;10.986;2022-09-09T04:30:02;2.30;;;1.33;;
12878;SDS011;20617;49.476;10.986;2022-09-09T04:32:08;3.28;;;1.50;;
12878;SDS011;20617;49.476;10.986;2022-09-09T04:34:14;4.55;;;1.77;;
12878;SDS011;20617;49.476;10.986;2022-09-09T04:36:19;2.78;;;1.50;;
12878;SDS011;20617;49.476;10.986;2022-09-09T04:38:28;3.17;;;1.58;;
12878;SDS011;20617;49.476;10.986;2022-09-09T04:40:33;5.88;;;1.63;;
12878;SDS011;20617;49.476;10.986;2022-09-09T04:44:48;2.60;;;1.75;;
12878;SDS011;20617;49.476;10.986;2022-09-09T04:46:53;3.42;;;1.63;;
12878;SDS011;20617;49.476;10.986;2022-09-09T04:51:06;4.00;;;2.30;;
12878;SDS011;20617;49.476;10.986;2022-09-09T04:53:16;1.90;;;1.63;;
12878;SDS011;20617;49.476;10.986;2022-09-09T04:55:21;4.45;;;1.50;;
12878;SDS011;20617;49.476;10.986;2022-09-09T04:57:25;4.63;;;1.80;;
12878;SDS011;20617;49.476;10.986;2022-09-09T04:59:33;3.53;;;1.65;;
12878;SDS011;20617;49.476;10.986;2022-09-09T05:01:38;3.95;;;1.63;;
12878;SDS011;20617;49.476;10.986;2022-09-09T05:03:43;2.20;;;1.50;;
12878;SDS011;20617;49.476;10.986;2022-09-09T05:05:52;5.18;;;1.50;;
12878;SDS011;20617;49.476;10.986;2022-09-09T05:08:00;3.42;;;1.30;;
12878;SDS011;20617;49.476;10.986;2022-09-09T05:10:06;2.25;;;1.42;;
12878;SDS011;20617;49.476;10.986;2022-09-09T05:12:12;3.83;;;1.63;;
12878;SDS011;20617;49.476;10.986;2022-09-09T05:14:24;4.05;;;1.45;;
12878;SDS011;20617;49.476;10.986;2022-09-09T05:16:31;3.15;;;1.42;;
12878;SDS011;20617;49.476;10.986;2022-09-09T05:18:36;2.33;;;1.27;;
12878;SDS011;20617;49.476;10.986;2022-09-09T05:20:42;2.47;;;1.52;;
12878;SDS011;20617;49.476;10.986;2022-09-09T05:22:47;2.15;;;1.67;;
12878;SDS011;20617;49.476;10.986;2022-09-09T05:24:52;2.65;;;1.30;;
12878;SDS011;20617;49.476;10.986;2022-09-09T05:26:56;2.53;;;1.35;;
12878;SDS011;20617;49.476;10.986;2022-09-09T05:29:04;4.40;;;1.52;;
12878;SDS011;20617;49.476;10.986;2022-09-09T05:31:10;1.60;;;1.30;;
12878;SDS011;20617;49.476;10.986;2022-09-09T05:33:20;2.13;;;1.50;;
12878;SDS011;20617;49.476;10.986;2022-09-09T05:35:26;1.90;;;1.23;;
12878;SDS011;20617;49.476;10.986;2022-09-09T05:37:31;2.50;;;1.50;;
12878;SDS011;20617;49.476;10.986;2022-09-09T05:39:36;3.22;;;1.63;;
12878;SDS011;20617;49.476;10.986;2022-09-09T05:41:41;2.88;;;1.58;;
12878;SDS011;20617;49.476;10.986;2022-09-09T05:43:46;1.33;;;1.20;;
12878;SDS011;20617;49.476;10.986;2022-09-09T05:46:02;2.90;;;1.75;;
12878;SDS011;20617;49.476;10.986;2022-09-09T05:48:09;1.90;;;1.30;;
12878;SDS011;20617;49.476;10.986;2022-09-09T05:50:16;2.20;;;1.30;;
12878;SDS011;20617;49.476;10.986;2022-09-09T05:52:22;3.38;;;1.70;;
12878;SDS011;20617;49.476;10.986;2022-09-09T05:54:29;3.25;;;1.73;;
12878;SDS011;20617;49.476;10.986;2022-09-09T05:56:34;3.10;;;1.73;;
12878;SDS011;20617;49.476;10.986;2022-09-09T05:58:41;4.57;;;1.45;;
12878;SDS011;20617;49.476;10.986;2022-09-09T06:00:48;2.63;;;1.50;;
12878;SDS011;20617;49.476;10.986;2022-09-09T06:02:53;3.53;;;1.40;;
12878;SDS011;20617;49.476;10.986;2022-09-09T06:04:59;2.13;;;1.45;;
12878;SDS011;20617;49.476;10.986;2022-09-09T06:07:07;2.80;;;1.63;;
12878;SDS011;20617;49.476;10.986;2022-09-09T06:09:12;7.10;;;1.60;;
12878;SDS011;20617;49.476;10.986;2022-09-09T06:11:17;2.70;;;1.60;;
12878;SDS011;20617;49.476;10.986;2022-09-09T06:13:23;2.95;;;1.70;;
12878;SDS011;20617;49.476;10.986;2022-09-09T06:15:28;4.15;;;1.88;;
12878;SDS011;20617;49.476;10.986;2022-09-09T06:19:38;3.00;;;1.55;;
12878;SDS011;20617;49.476;10.986;2022-09-09T06:21:43;4.43;;;2.05;;
12878;SDS011;20617;49.476;10.986;2022-09-09T06:23:52;1.90;;;1.50;;
12878;SDS011;20617;49.476;10.986;2022-09-09T06:26:03;2.40;;;1.35;;
12878;SDS011;20617;49.476;10.986;2022-09-09T06:28:10;2.38;;;1.33;;
12878;SDS011;20617;49.476;10.986;2022-09-09T06:30:15;2.88;;;1.30;;
12878;SDS011;20617;49.476;10.986;2022-09-09T06:32:20;2.88;;;1.38;;
12878;SDS011;20617;49.476;10.986;2022-09-09T06:34:25;2.75;;;1.60;;
12878;SDS011;20617;49.476;10.986;2022-09-09T06:36:33;2.92;;;1.63;;
12878;SDS011;20617;49.476;10.986;2022-09-09T06:38:39;2.33;;;1.60;;
12878;SDS011;20617;49.476;10.986;2022-09-09T06:40:53;6.95;;;1.50;;
12878;SDS011;20617;49.476;10.986;2022-09-09T06:42:59;4.82;;;1.33;;
12878;SDS011;20617;49.476;10.986;2022-09-09T06:45:15;1.80;;;1.33;;
12878;SDS011;20617;49.476;10.986;2022-09-09T06:47:27;1.88;;;1.50;;
12878;SDS011;20617;49.476;10.986;2022-09-09T06:49:32;3.75;;;1.50;;
12878;SDS011;20617;49.476;10.986;2022-09-09T06:51:41;4.45;;;1.55;;
12878;SDS011;20617;49.476;10.986;2022-09-09T06:53:49;2.05;;;1.50;;
12878;SDS011;20617;49.476;10.986;2022-09-09T06:56:00;3.50;;;1.45;;
12878;SDS011;20617;49.476;10.986;2022-09-09T06:58:07;3.15;;;1.50;;
12878;SDS011;20617;49.476;10.986;2022-09-09T07:00:12;2.97;;;1.50;;
12878;SDS011;20617;49.476;10.986;2022-09-09T07:02:18;3.72;;;1.55;;
12878;SDS011;20617;49.476;10.986;2022-09-09T07:04:23;5.82;;;1.75;;
12878;SDS011;20617;49.476;10.986;2022-09-09T07:06:29;4.00;;;2.00;;
12878;SDS011;20617;49.476;10.986;2022-09-09T07:08:36;3.85;;;1.25;;
12878;SDS011;20617;49.476;10.986;2022-09-09T07:10:41;2.58;;;1.50;;
12878;SDS011;20617;49.476;10.986;2022-09-09T07:14:59;2.70;;;1.55;;
12878;SDS011;20617;49.476;10.986;2022-09-09T07:17:03;2.58;;;1.38;;
12878;SDS011;20617;49.476;10.986;2022-09-09T07:19:12;4.40;;;1.20;;
12878;SDS011;20617;49.476;10.986;2022-09-09T07:21:19;3.33;;;1.30;;
12878;SDS011;20617;49.476;10.986;2022-09-09T07:23:24;3.05;;;1.48;;
12878;SDS011;20617;49.476;10.986;2022-09-09T07:25:33;4.20;;;1.65;;
12878;SDS011;20617;49.476;10.986;2022-09-09T07:27:38;4.22;;;2.10;;
12878;SDS011;20617;49.476;10.986;2022-09-09T07:31:52;4.07;;;1.75;;
12878;SDS011;20617;49.476;10.986;2022-09-09T07:34:02;3.42;;;1.60;;
12878;SDS011;20617;49.476;10.986;2022-09-09T07:36:09;3.53;;;1.58;;
12878;SDS011;20617;49.476;10.986;2022-09-09T07:38:16;1.83;;;1.20;;
12878;SDS011;20617;49.476;10.986;2022-09-09T07:40:22;2.58;;;1.40;;
12878;SDS011;20617;49.476;10.986;2022-09-09T07:42:27;2.92;;;1.63;;
12878;SDS011;20617;49.476;10.986;2022-09-09T07:44:32;3.83;;;1.90;;
12878;SDS011;20617;49.476;10.986;2022-09-09T07:46:45;3.58;;;1.40;;
12878;SDS011;20617;49.476;10.986;2022-09-09T07:48:55;3.20;;;1.23;;
12878;SDS011;20617;49.476;10.986;2022-09-09T07:51:04;4.75;;;1.38;;
12878;SDS011;20617;49.476;10.986;2022-09-09T07:53:10;5.05;;;1.63;;
12878;SDS011;20617;49.476;10.986;2022-09-09T07:55:15;4.03;;;1.73;;
12878;SDS011;20617;49.476;10.986;2022-09-09T07:57:21;3.00;;;1.38;;
12878;SDS011;20617;49.476;10.986;2022-09-09T07:59:27;5.25;;;1.80;;
12878;SDS011;20617;49.476;10.986;2022-09-09T08:01:33;2.88;;;1.40;;
12878;SDS011;20617;49.476;10.986;2022-09-09T08:03:45;4.40;;;2.10;;
12878;SDS011;20617;49.476;10.986;2022-09-09T08:05:59;2.77;;;1.20;;
12878;SDS011;20617;49.476;10.986;2022-09-09T08:08:05;3.92;;;1.65;;
12878;SDS011;20617;49.476;10.986;2022-09-09T08:10:10;3.03;;;1.30;;
12878;SDS011;20617;49.476;10.986;2022-09-09T08:12:16;4.25;;;1.40;;
12878;SDS011;20617;49.476;10.986;2022-09-09T08:14:22;3.00;;;1.40;;
12878;SDS011;20617;49.476;10.986;2022-09-09T08:16:28;3.95;;;1.73;;
12878;SDS011;20617;49.476;10.986;2022-09-09T08:18:35;3.58;;;1.70;;
12878;SDS011;20617;49.476;10.986;2022-09-09T08:20:43;3.70;;;1.10;;
12878;SDS011;20617;49.476;10.986;2022-09-09T08:22:48;2.35;;;1.30;;
12878;SDS011;20617;49.476;10.986;2022-09-09T08:24:54;3.72;;;1.20;;
12878;SDS011;20617;49.476;10.986;2022-09-09T08:26:59;4.55;;;1.40;;
12878;SDS011;20617;49.476;10.986;2022-09-09T08:29:06;2.03;;;0.98;;
12878;SDS011;20617;49.476;10.986;2022-09-09T08:31:13;1.40;;;1.00;;
12878;SDS011;20617;49.476;10.986;2022-09-09T08:33:19;1.85;;;1.10;;
12878;SDS011;20617;49.476;10.986;2022-09-09T08:35:24;2.97;;;1.17;;
12878;SDS011;20617;49.476;10.986;2022-09-09T08:37:35;5.22;;;1.20;;
12878;SDS011;20617;49.476;10.986;2022-09-09T08:39:40;2.63;;;1.17;;
12878;SDS011;20617;49.476;10.986;2022-09-09T08:41:54;1.30;;;0.80;;
12878;SDS011;20617;49.476;10.986;2022-09-09T08:44:22;3.13;;;1.10;;
12878;SDS011;20617;49.476;10.986;2022-09-09T08:46:42;3.60;;;1.10;;
12878;SDS011;20617;49.476;10.986;2022-09-09T08:48:58;1.98;;;0.90;;
12878;SDS011;20617;49.476;10.986;2022-09-09T08:51:10;2.90;;;1.02;;
12878;SDS011;20617;49.476;10.986;2022-09-09T08:53:21;2.60;;;0.88;;
12878;SDS011;20617;49.476;10.986;2022-09-09T08:55:35;3.08;;;0.90;;
12878;SDS011;20617;49.476;10.986;2022-09-09T08:57:45;1.98;;;0.80;;
12878;SDS011;20617;49.476;10.986;2022-09-09T09:02:00;1.95;;;0.77;;
12878;SDS011;20617;49.476;10.986;2022-09-09T09:04:28;2.38;;;0.70;;
12878;SDS011;20617;49.476;10.986;2022-09-09T09:06:42;1.63;;;0.57;;
12878;SDS011;20617;49.476;10.986;2022-09-09T09:08:58;1.20;;;0.70;;
12878;SDS011;20617;49.476;10.986;2022-09-09T09:11:07;2.28;;;1.15;;
12878;SDS011;20617;49.476;10.986;2022-09-09T09:13:15;2.67;;;0.88;;
12878;SDS011;20617;49.476;10.986;2022-09-09T09:15:25;2.78;;;0.82;;
12878;SDS011;20617;49.476;10.986;2022-09-09T09:17:36;2.63;;;0.70;;
12878;SDS011;20617;49.476;10.986;2022-09-09T09:19:42;3.03;;;1.42;;
12878;SDS011;20617;49.476;10.986;2022-09-09T09:21:49;3.05;;;0.77;;
12878;SDS011;20617;49.476;10.986;2022-09-09T09:24:01;2.38;;;0.70;;
12878;SDS011;20617;49.476;10.986;2022-09-09T09:26:11;3.03;;;0.90;;
12878;SDS011;20617;49.476;10.986;2022-09-09T09:28:17;6.22;;;1.08;;
12878;SDS011;20617;49.476;10.986;2022-09-09T09:30:29;1.33;;;0.80;;
12878;SDS011;20617;49.476;10.986;2022-09-09T09:32:44;2.00;;;0.50;;
12878;SDS011;20617;49.476;10.986;2022-09-09T09:34:56;1.20;;;0.70;;
12878;SDS011;20617;49.476;10.986;2022-09-09T09:37:11;2.30;;;1.02;;
12878;SDS011;20617;49.476;10.986;2022-09-09T09:39:25;3.28;;;0.88;;
12878;SDS011;20617;49.476;10.986;2022-09-09T09:41:51;3.35;;;0.60;;
12878;SDS011;20617;49.476;10.986;2022-09-09T09:43:56;2.72;;;1.00;;
12878;SDS011;20617;49.476;10.986;2022-09-09T09:46:03;3.22;;;0.90;;
12878;SDS011;20617;49.476;10.986;2022-09-09T09:48:19;2.95;;;0.88;;
12878;SDS011;20617;49.476;10.986;2022-09-09T09:50:24;2.20;;;0.90;;
12878;SDS011;20617;49.476;10.986;2022-09-09T09:52:30;1.30;;;0.60;;
12878;SDS011;20617;49.476;10.986;2022-09-09T09:54:43;3.55;;;0.93;;
12878;SDS011;20617;49.476;10.986;2022-09-09T09:56:48;2.75;;;0.80;;
12878;SDS011;20617;49.476;10.986;2022-09-09T09:58:54;2.45;;;0.70;;
12878;SDS011;20617;49.476;10.986;2022-09-09T10:01:18;2.33;;;0.98;;
12878;SDS011;20617;49.476;10.986;2022-09-09T10:03:27;1.38;;;0.50;;
12878;SDS011;20617;49.476;10.986;2022-09-09T10:05:35;2.60;;;0.70;;
12878;SDS011;20617;49.476;10.986;2022-09-09T10:07:44;2.33;;;0.77;;
12878;SDS011;20617;49.476;10.986;2022-09-09T10:09:53;2.75;;;0.82;;
12878;SDS011;20617;49.476;10.986;2022-09-09T10:12:01;4.68;;;1.15;;
12878;SDS011;20617;49.476;10.986;2022-09-09T10:14:17;1.23;;;0.50;;
12878;SDS011;20617;49.476;10.986;2022-09-09T10:16:29;1.00;;;0.50;;
12878;SDS011;20617;49.476;10.986;2022-09-09T10:18:50;2.25;;;0.70;;
12878;SDS011;20617;49.476;10.986;2022-09-09T10:21:04;2.08;;;0.52;;
12878;SDS011;20617;49.476;10.986;2022-09-09T10:23:26;1.92;;;0.80;;
12878;SDS011;20617;49.476;10.986;2022-09-09T10:25:56;2.00;;;1.02;;
12878;SDS011;20617;49.476;10.986;2022-09-09T10:31:03;3.22;;;0.90;;
12878;SDS011;20617;49.476;10.986;2022-09-09T10:33:21;1.88;;;0.73;;
12878;SDS011;20617;49.476;10.986;2022-09-09T10:35:34;2.83;;;1.30;;
12878;SDS011;20617;49.476;10.986;2022-09-09T10:37:46;6.50;;;1.05;;
12878;SDS011;20617;49.476;10.986;2022-09-09T10:40:05;3.65;;;1.00;;
12878;SDS011;20617;49.476;10.986;2022-09-09T10:42:29;2.50;;;0.93;;
12878;SDS011;20617;49.476;10.986;2022-09-09T10:44:42;2.80;;;0.80;;
12878;SDS011;20617;49.476;10.986;2022-09-09T10:47:04;2.25;;;1.10;;
12878;SDS011;20617;49.476;10.986;2022-09-09T10:49:25;3.75;;;0.95;;
12878;SDS011;20617;49.476;10.986;2022-09-09T10:51:45;3.13;;;0.95;;
12878;SDS011;20617;49.476;10.986;2022-09-09T10:54:05;2.17;;;0.60;;
12878;SDS011;20617;49.476;10.986;2022-09-09T10:56:24;2.65;;;1.00;;
12878;SDS011;20617;49.476;10.986;2022-09-09T10:58:33;4.93;;;0.90;;
12878;SDS011;20617;49.476;10.986;2022-09-09T11:00:45;2.15;;;0.80;;
12878;SDS011;20617;49.476;10.986;2022-09-09T11:02:59;2.10;;;0.88;;
12878;SDS011;20617;49.476;10.986;2022-09-09T11:05:08;2.75;;;1.00;;
12878;SDS011;20617;49.476;10.986;2022-09-09T11:07:22;1.10;;;0.60;;
12878;SDS011;20617;49.476;10.986;2022-09-09T11:09:35;2.40;;;1.20;;
12878;SDS011;20617;49.476;10.986;2022-09-09T11:11:46;3.78;;;0.98;;
12878;SDS011;20617;49.476;10.986;2022-09-09T11:14:00;1.85;;;0.80;;
12878;SDS011;20617;49.476;10.986;2022-09-09T11:16:14;2.13;;;1.00;;
12878;SDS011;20617;49.476;10.986;2022-09-09T11:18:27;1.63;;;0.70;;
12878;SDS011;20617;49.476;10.986;2022-09-09T11:20:36;4.93;;;1.00;;
12878;SDS011;20617;49.476;10.986;2022-09-09T11:22:43;1.77;;;0.73;;
12878;SDS011;20617;49.476;10.986;2022-09-09T11:24:53;2.63;;;1.20;;
12878;SDS011;20617;49.476;10.986;2022-09-09T11:27:06;2.20;;;0.95;;
12878;SDS011;20617;49.476;10.986;2022-09-09T11:29:23;2.08;;;1.05;;
12878;SDS011;20617;49.476;10.986;2022-09-09T11:31:53;2.50;;;1.10;;
12878;SDS011;20617;49.476;10.986;2022-09-09T11:34:12;2.58;;;1.02;;
12878;SDS011;20617;49.476;10.986;2022-09-09T11:36:34;2.95;;;0.90;;
12878;SDS011;20617;49.476;10.986;2022-09-09T11:38:47;2.55;;;0.90;;
12878;SDS011;20617;49.476;10.986;2022-09-09T11:40:56;1.52;;;0.70;;
12878;SDS011;20617;49.476;10.986;2022-09-09T11:43:04;1.83;;;0.70;;
12878;SDS011;20617;49.476;10.986;2022-09-09T11:45:23;3.40;;;0.70;;
12878;SDS011;20617;49.476;10.986;2022-09-09T11:47:31;3.15;;;0.73;;
12878;SDS011;20617;49.476;10.986;2022-09-09T11:49:39;1.00;;;0.60;;
12878;SDS011;20617;49.476;10.986;2022-09-09T11:51:47;1.60;;;0.75;;
12878;SDS011;20617;49.476;10.986;2022-09-09T11:53:53;2.08;;;0.60;;
12878;SDS011;20617;49.476;10.986;2022-09-09T11:56:07;1.83;;;0.85;;
12878;SDS011;20617;49.476;10.986;2022-09-09T11:58:15;1.38;;;0.55;;
12878;SDS011;20617;49.476;10.986;2022-09-09T12:00:34;2.10;;;0.90;;
12878;SDS011;20617;49.476;10.986;2022-09-09T12:02:47;1.95;;;0.77;;
12878;SDS011;20617;49.476;10.986;2022-09-09T12:04:58;2.15;;;0.68;;
12878;SDS011;20617;49.476;10.986;2022-09-09T12:07:21;2.00;;;0.85;;
12878;SDS011;20617;49.476;10.986;2022-09-09T12:09:38;1.88;;;0.65;;
12878;SDS011;20617;49.476;10.986;2022-09-09T12:11:50;1.42;;;0.73;;
12878;SDS011;20617;49.476;10.986;2022-09-09T12:13:55;2.65;;;0.93;;
12878;SDS011;20617;49.476;10.986;2022-09-09T12:16:04;2.85;;;1.50;;
12878;SDS011;20617;49.476;10.986;2022-09-09T12:18:14;2.40;;;0.90;;
12878;SDS011;20617;49.476;10.986;2022-09-09T12:20:30;3.60;;;1.60;;
12878;SDS011;20617;49.476;10.986;2022-09-09T12:22:41;1.58;;;0.90;;
12878;SDS011;20617;49.476;10.986;2022-09-09T12:24:57;3.22;;;0.90;;
12878;SDS011;20617;49.476;10.986;2022-09-09T12:27:11;0.98;;;0.60;;
12878;SDS011;20617;49.476;10.986;2022-09-09T12:29:24;1.98;;;1.00;;
12878;SDS011;20617;49.476;10.986;2022-09-09T12:31:37;1.20;;;0.80;;
12878;SDS011;20617;49.476;10.986;2022-09-09T12:35:54;3.75;;;1.25;;
12878;SDS011;20617;49.476;10.986;2022-09-09T12:38:02;3.35;;;1.27;;
12878;SDS011;20617;49.476;10.986;2022-09-09T12:40:18;2.97;;;1.20;;
12878;SDS011;20617;49.476;10.986;2022-09-09T12:42:26;2.65;;;1.40;;
12878;SDS011;20617;49.476;10.986;2022-09-09T12:44:31;2.63;;;1.50;;
12878;SDS011;20617;49.476;10.986;2022-09-09T12:48:44;1.20;;;0.88;;
12878;SDS011;20617;49.476;10.986;2022-09-09T12:50:50;2.92;;;1.23;;
12878;SDS011;20617;49.476;10.986;2022-09-09T12:52:58;1.90;;;0.90;;
12878;SDS011;20617;49.476;10.986;2022-09-09T12:55:05;3.13;;;1.02;;
12878;SDS011;20617;49.476;10.986;2022-09-09T12:57:12;8.27;;;1.45;;
12878;SDS011;20617;49.476;10.986;2022-09-09T12:59:22;6.88;;;1.00;;
12878;SDS011;20617;49.476;10.986;2022-09-09T13:01:29;4.10;;;1.30;;
12878;SDS011;20617;49.476;10.986;2022-09-09T13:03:43;5.68;;;1.20;;
12878;SDS011;20617;49.476;10.986;2022-09-09T13:05:50;5.40;;;1.02;;
12878;SDS011;20617;49.476;10.986;2022-09-09T13:08:00;3.70;;;1.10;;
12878;SDS011;20617;49.476;10.986;2022-09-09T13:10:09;2.85;;;1.10;;
12878;SDS011;20617;49.476;10.986;2022-09-09T13:12:26;3.10;;;1.10;;
12878;SDS011;20617;49.476;10.986;2022-09-09T13:14:31;4.43;;;1.15;;
12878;SDS011;20617;49.476;10.986;2022-09-09T13:16:40;4.75;;;1.02;;
12878;SDS011;20617;49.476;10.986;2022-09-09T13:18:48;5.78;;;1.13;;
12878;SDS011;20617;49.476;10.986;2022-09-09T13:20:53;3.33;;;1.15;;
12878;SDS011;20617;49.476;10.986;2022-09-09T13:23:00;3.75;;;1.10;;
12878;SDS011;20617;49.476;10.986;2022-09-09T13:25:06;4.25;;;1.10;;